createdAt,value
2022-12-16T00:01:27.491Z,93.87
2022-12-16T00:03:58.063Z,96.00
2022-12-16T00:06:30.099Z,108.15
2022-12-16T00:08:59.767Z,113.10
2022-12-16T00:11:27.965Z,124.07
2022-12-16T00:13:55.526Z,119.60
2022-12-16T00:16:23.079Z,105.58
2022-12-16T00:18:51.991Z,105.70
2022-12-16T00:21:20.307Z,98.78
2022-12-16T00:23:48.343Z,97.80
2022-12-16T00:26:16.242Z,89.60
2022-12-16T00:28:44.089Z,100.92
2022-12-16T00:31:12.730Z,98.22
2022-12-16T00:33:41.059Z,99.95
2022-12-16T00:36:10.091Z,101.07
2022-12-16T00:38:38.151Z,97.27
2022-12-16T00:41:05.972Z,101.95
2022-12-16T00:43:34.198Z,93.12
2022-12-16T00:46:02.260Z,99.52
2022-12-16T00:48:30.194Z,96.40
2022-12-16T00:50:57.693Z,108.80
2022-12-16T00:53:25.720Z,112.37
2022-12-16T00:56:02.878Z,99.75
2022-12-16T00:58:30.711Z,95.20
2022-12-16T01:00:58.456Z,88.90
2022-12-16T01:03:26.451Z,98.70
2022-12-16T01:05:54.146Z,96.40
2022-12-16T01:08:21.707Z,94.45
2022-12-16T01:10:55.896Z,97.97
2022-12-16T01:13:25.601Z,97.42
2022-12-16T01:15:53.233Z,97.60
2022-12-16T01:18:21.666Z,103.25
2022-12-16T01:20:49.149Z,92.30
2022-12-16T01:23:17.414Z,99.95
2022-12-16T01:25:45.264Z,96.60
2022-12-16T01:28:12.917Z,102.70
2022-12-16T01:30:40.587Z,96.37
2022-12-16T01:33:09.460Z,103.60
2022-12-16T01:35:54.899Z,101.42
2022-12-16T01:38:06.411Z,101.47
2022-12-16T01:40:34.350Z,107.43
2022-12-16T01:43:01.554Z,104.20
2022-12-16T01:45:35.852Z,109.30
2022-12-16T01:48:24.167Z,103.53
2022-12-16T01:50:56.452Z,95.40
2022-12-16T01:53:24.627Z,100.12
2022-12-16T01:55:54.882Z,98.20
2022-12-16T01:58:27.010Z,90.85
2022-12-16T02:00:54.953Z,99.95
2022-12-16T02:03:22.975Z,101.65
2022-12-16T02:05:51.770Z,96.28
2022-12-16T02:08:20.409Z,96.08
2022-12-16T02:11:02.740Z,93.30
2022-12-16T02:13:47.936Z,86.35
2022-12-16T02:16:35.578Z,88.78
2022-12-16T02:19:25.364Z,91.32
2022-12-16T02:22:09.971Z,88.72
2022-12-16T02:25:22.912Z,78.25
2022-12-16T02:28:08.566Z,78.10
2022-12-16T02:30:53.704Z,75.37
2022-12-16T02:33:37.575Z,69.05
2022-12-16T02:36:25.753Z,70.60
2022-12-16T02:39:00.915Z,63.90
2022-12-16T02:42:03.229Z,65.05
2022-12-16T02:44:55.949Z,57.85
2022-12-16T02:47:24.771Z,55.48
2022-12-16T02:49:54.715Z,55.15
2022-12-16T02:52:29.803Z,53.78
2022-12-16T02:55:05.044Z,55.15
2022-12-16T03:00:14.617Z,52.48
2022-12-16T03:02:47.809Z,50.35
2022-12-16T03:05:36.050Z,50.05
2022-12-16T03:08:13.351Z,50.83
2022-12-16T03:10:55.615Z,42.62
2022-12-16T03:13:25.287Z,47.58
2022-12-16T03:15:56.528Z,42.15
2022-12-16T03:18:25.375Z,37.73
2022-12-16T03:20:58.309Z,40.48
2022-12-16T03:23:39.680Z,36.30
2022-12-16T03:26:13.711Z,35.23
2022-12-16T03:28:49.595Z,34.90
2022-12-16T03:31:44.164Z,32.23
2022-12-16T03:34:37.359Z,31.25
2022-12-16T03:37:09.273Z,28.25
2022-12-16T03:39:42.366Z,24.00
2022-12-16T03:42:14.541Z,22.73
2022-12-16T03:44:45.882Z,24.67
2022-12-16T03:47:18.342Z,21.52
2022-12-16T03:49:44.997Z,22.15
2022-12-16T03:52:12.856Z,20.30
2022-12-16T03:54:40.397Z,18.87
2022-12-16T03:57:14.759Z,20.72
2022-12-16T03:59:38.071Z,19.25
2022-12-16T04:02:05.750Z,21.05
2022-12-16T04:04:33.895Z,19.27
2022-12-16T04:07:19.834Z,18.32
2022-12-16T04:12:34.884Z,22.32
2022-12-16T04:15:22.364Z,22.60
2022-12-16T04:18:08.972Z,17.70
2022-12-16T04:21:00.030Z,16.67
2022-12-16T04:23:49.228Z,16.75
2022-12-16T04:26:17.087Z,20.02
2022-12-16T04:28:44.603Z,16.42
2022-12-16T04:31:12.393Z,19.52
2022-12-16T04:33:59.336Z,19.80
2022-12-16T04:36:45.353Z,20.43
2022-12-16T04:39:31.542Z,17.70
2022-12-16T04:42:17.649Z,17.73
2022-12-16T04:45:03.790Z,17.80
2022-12-16T04:47:54.122Z,24.80
2022-12-16T04:50:21.242Z,23.55
2022-12-16T04:53:10.157Z,27.32
2022-12-16T04:56:02.099Z,28.77
2022-12-16T04:58:44.373Z,20.08
2022-12-16T05:01:30.718Z,20.90
2022-12-16T05:04:17.108Z,21.77
2022-12-16T05:07:03.162Z,25.32
2022-12-16T05:09:41.621Z,17.10
2022-12-16T05:12:28.127Z,18.37
2022-12-16T05:15:14.461Z,15.80
2022-12-16T05:18:03.183Z,14.63
2022-12-16T05:20:49.570Z,17.60
2022-12-16T05:23:36.094Z,16.25
2022-12-16T05:26:25.327Z,18.65
2022-12-16T05:29:11.558Z,17.90
2022-12-16T05:31:57.640Z,19.05
2022-12-16T05:34:43.987Z,17.32
2022-12-16T05:37:29.983Z,19.02
2022-12-16T05:40:16.166Z,20.72
2022-12-16T05:43:06.116Z,21.33
2022-12-16T05:45:52.470Z,19.77
2022-12-16T05:48:41.961Z,17.15
2022-12-16T05:51:26.888Z,17.02
2022-12-16T05:54:13.197Z,15.00
2022-12-16T05:56:59.556Z,18.48
2022-12-16T05:59:45.893Z,18.40
2022-12-16T06:02:31.917Z,20.60
2022-12-16T06:05:18.424Z,21.48
2022-12-16T06:08:11.373Z,25.75
2022-12-16T06:10:57.685Z,22.17
2022-12-16T06:13:44.100Z,26.73
2022-12-16T06:16:30.814Z,26.45
2022-12-16T06:19:17.419Z,44.15
2022-12-16T06:22:05.570Z,28.55
2022-12-16T06:24:51.889Z,29.30
2022-12-16T06:27:38.201Z,22.87
2022-12-16T06:30:28.806Z,20.25
2022-12-16T06:33:14.807Z,22.80
2022-12-16T06:38:36.960Z,21.97
2022-12-16T06:41:23.334Z,16.20
2022-12-16T06:44:10.241Z,17.92
2022-12-16T06:46:56.300Z,18.57
2022-12-16T06:49:42.054Z,15.60
2022-12-16T06:52:28.915Z,14.18
2022-12-16T06:55:16.166Z,13.58
2022-12-16T06:58:06.785Z,16.62
2022-12-16T07:00:52.417Z,25.62
2022-12-16T07:03:38.762Z,21.73
2022-12-16T07:06:25.551Z,17.23
2022-12-16T07:09:11.363Z,20.97
2022-12-16T07:11:59.506Z,20.40
2022-12-16T07:14:45.951Z,19.10
2022-12-16T07:17:32.093Z,17.37
2022-12-16T07:20:17.899Z,18.85
2022-12-16T07:23:13.075Z,17.70
2022-12-16T07:25:52.980Z,18.02
2022-12-16T07:28:38.762Z,16.02
2022-12-16T07:34:11.193Z,16.57
2022-12-16T07:36:58.412Z,17.60
2022-12-16T07:39:48.821Z,17.02
2022-12-16T07:42:32.889Z,17.23
2022-12-16T07:45:19.199Z,18.62
2022-12-16T07:48:07.239Z,20.97
2022-12-16T07:50:55.013Z,21.12
2022-12-16T07:53:42.804Z,19.52
2022-12-16T07:56:29.028Z,20.45
2022-12-16T07:59:17.398Z,20.20
2022-12-16T08:02:03.645Z,17.05
2022-12-16T08:04:51.392Z,18.15
2022-12-16T08:07:39.135Z,15.50
2022-12-16T08:10:26.306Z,18.27
2022-12-16T08:13:25.885Z,19.67
2022-12-16T08:16:10.493Z,15.65
2022-12-16T08:18:56.406Z,16.37
2022-12-16T08:21:42.578Z,15.10
2022-12-16T08:24:29.225Z,21.40
2022-12-16T08:27:15.868Z,18.02
2022-12-16T08:30:01.840Z,15.63
2022-12-16T08:32:47.601Z,21.05
2022-12-16T08:42:06.518Z,17.82
2022-12-16T08:44:54.427Z,17.32
2022-12-16T08:47:40.605Z,20.43
2022-12-16T08:50:28.018Z,23.73
2022-12-16T08:53:14.040Z,19.37
2022-12-16T08:56:00.851Z,25.52
2022-12-16T08:58:47.184Z,20.70
2022-12-16T09:01:35.487Z,21.12
2022-12-16T09:04:22.720Z,24.15
2022-12-16T09:07:09.086Z,17.37
2022-12-16T09:09:55.287Z,20.82
2022-12-16T09:12:41.028Z,18.42
2022-12-16T09:15:28.251Z,24.02
2022-12-16T09:18:15.148Z,21.37
2022-12-16T09:21:01.309Z,22.13
2022-12-16T09:26:33.096Z,16.55
2022-12-16T09:29:18.890Z,16.32
2022-12-16T09:34:54.326Z,19.75
2022-12-16T09:37:41.474Z,20.77
2022-12-16T09:40:31.748Z,22.42
2022-12-16T09:43:39.879Z,19.42
2022-12-16T09:47:08.399Z,25.02
2022-12-16T09:50:06.614Z,19.75
2022-12-16T09:53:07.369Z,21.93
2022-12-16T09:55:59.112Z,18.67
2022-12-16T09:58:52.778Z,17.17
2022-12-16T10:01:40.498Z,17.40
2022-12-16T10:04:27.018Z,19.12
2022-12-16T10:07:17.306Z,17.82
2022-12-16T10:10:40.669Z,12.25
2022-12-16T10:13:51.533Z,10.82
2022-12-16T10:16:53.183Z,12.85
2022-12-16T10:19:53.159Z,16.27
2022-12-16T10:22:49.309Z,14.53
2022-12-16T10:25:43.787Z,15.43
2022-12-16T10:28:37.620Z,16.17
2022-12-16T10:31:33.421Z,18.02
2022-12-16T10:34:20.152Z,22.87
2022-12-16T10:37:12.340Z,18.17
2022-12-16T10:40:05.212Z,20.00
2022-12-16T10:43:07.894Z,20.45
2022-12-16T10:46:01.512Z,22.05
2022-12-16T10:48:54.981Z,19.60
2022-12-16T10:51:41.316Z,22.62
2022-12-16T10:54:45.129Z,24.00
2022-12-16T10:57:54.594Z,22.50
2022-12-16T11:01:02.374Z,20.55
2022-12-16T11:03:52.060Z,18.57
2022-12-16T11:06:46.954Z,20.90
2022-12-16T11:09:47.023Z,21.87
2022-12-16T11:12:43.855Z,24.05
2022-12-16T11:15:44.118Z,26.70
2022-12-16T11:18:40.269Z,28.05
2022-12-16T11:21:33.708Z,25.80
2022-12-16T11:24:37.802Z,26.90
2022-12-16T11:27:33.557Z,21.73
2022-12-16T11:30:24.261Z,22.27
2022-12-16T11:33:15.327Z,25.10
2022-12-16T11:36:11.658Z,20.12
2022-12-16T11:39:06.846Z,24.72
2022-12-16T11:42:02.850Z,16.42
2022-12-16T11:45:00.278Z,13.20
2022-12-16T11:48:03.463Z,20.75
2022-12-16T11:50:55.461Z,20.02
2022-12-16T11:54:12.198Z,21.52
2022-12-16T12:00:13.510Z,19.23
2022-12-16T12:03:31.097Z,17.73
2022-12-16T12:06:46.868Z,14.43
2022-12-16T12:09:40.819Z,11.97
2022-12-16T12:12:47.348Z,13.53
2022-12-16T12:16:12.320Z,19.45
2022-12-16T12:19:03.647Z,19.12
2022-12-16T12:22:10.358Z,17.50
2022-12-16T12:28:08.707Z,17.07
2022-12-16T12:31:03.217Z,18.40
2022-12-16T12:33:57.780Z,21.40
2022-12-16T12:36:49.229Z,19.02
2022-12-16T12:40:01.606Z,21.17
2022-12-16T12:43:08.181Z,19.35
2022-12-16T12:46:51.993Z,18.85
2022-12-16T12:49:49.676Z,17.50
2022-12-16T12:52:33.823Z,21.10
2022-12-16T12:55:26.092Z,22.93
2022-12-16T12:58:15.704Z,31.75
2022-12-16T13:01:07.249Z,24.87
2022-12-16T13:04:00.715Z,22.87
2022-12-16T13:06:58.090Z,18.50
2022-12-16T13:09:56.569Z,18.65
2022-12-16T13:12:51.213Z,15.83
2022-12-16T13:15:56.861Z,21.95
2022-12-16T13:18:50.791Z,21.23
2022-12-16T13:22:00.845Z,16.40
2022-12-16T13:24:57.086Z,17.60
2022-12-16T13:27:45.220Z,19.20
2022-12-16T13:30:36.643Z,19.60
2022-12-16T13:33:48.712Z,20.70
2022-12-16T13:36:36.580Z,18.85
2022-12-16T13:39:42.368Z,18.20
2022-12-16T13:43:01.801Z,18.60
2022-12-16T13:45:58.326Z,16.32
2022-12-16T13:51:58.580Z,13.08
2022-12-16T13:55:14.303Z,12.43
2022-12-16T13:58:03.714Z,14.98
2022-12-16T14:00:54.862Z,17.90
2022-12-16T14:04:08.114Z,17.77
2022-12-16T14:06:57.385Z,25.95
2022-12-16T14:09:59.615Z,16.77
2022-12-16T14:13:06.304Z,15.25
2022-12-16T14:18:55.671Z,10.50
2022-12-16T14:21:52.622Z,8.13
2022-12-16T14:24:45.034Z,10.08
2022-12-16T14:27:35.705Z,7.67
2022-12-16T14:30:37.753Z,8.85
2022-12-16T14:33:47.591Z,10.48
2022-12-16T14:36:48.883Z,11.43
2022-12-16T14:39:46.558Z,11.63
2022-12-16T14:42:45.941Z,15.58
2022-12-16T14:45:46.062Z,14.50
2022-12-16T14:48:41.005Z,10.03
2022-12-16T14:51:56.071Z,8.03
2022-12-16T14:55:02.790Z,9.05
2022-12-16T14:57:50.777Z,9.70
2022-12-16T15:00:42.007Z,11.63
2022-12-16T15:03:52.233Z,11.93
2022-12-16T15:06:55.552Z,11.08
2022-12-16T15:09:51.538Z,13.40
2022-12-16T15:15:34.415Z,10.10
2022-12-16T15:18:21.829Z,9.68
2022-12-16T15:21:11.779Z,10.68
2022-12-16T15:24:03.230Z,9.23
2022-12-16T15:26:52.418Z,10.72
2022-12-16T15:29:56.921Z,9.75
2022-12-16T15:32:50.323Z,16.27
2022-12-16T15:35:41.851Z,7.25
2022-12-16T15:38:49.650Z,8.25
2022-12-16T15:41:44.005Z,8.68
2022-12-16T15:44:36.091Z,9.15
2022-12-16T15:47:22.928Z,10.63
2022-12-16T15:50:09.357Z,11.63
2022-12-16T15:53:03.131Z,12.78
2022-12-16T15:56:02.553Z,10.93
2022-12-16T15:58:54.237Z,9.80
2022-12-16T16:01:43.638Z,10.78
2022-12-16T16:04:48.882Z,9.25
2022-12-16T16:07:40.279Z,9.63
2022-12-16T16:10:42.673Z,12.80
2022-12-16T16:13:29.474Z,12.37
2022-12-16T16:16:16.460Z,7.42
2022-12-16T16:19:04.721Z,8.93
2022-12-16T16:21:50.902Z,9.53
2022-12-16T16:24:37.032Z,10.72
2022-12-16T16:27:27.987Z,10.40
2022-12-16T16:30:15.430Z,10.40
2022-12-16T16:33:02.189Z,12.98
2022-12-16T16:35:51.058Z,12.13
2022-12-16T16:38:37.620Z,11.28
2022-12-16T16:41:32.370Z,11.93
2022-12-16T16:44:19.939Z,11.30
2022-12-16T16:47:06.277Z,15.25
2022-12-16T16:50:00.861Z,17.00
2022-12-16T16:52:47.710Z,16.25
2022-12-16T16:55:42.710Z,15.28
2022-12-16T16:58:48.281Z,16.50
2022-12-16T17:01:36.231Z,12.97
2022-12-16T17:04:22.799Z,13.78
2022-12-16T17:07:08.894Z,13.40
2022-12-16T17:09:54.946Z,13.65
2022-12-16T17:12:46.914Z,13.65
2022-12-16T17:15:46.392Z,15.20
2022-12-16T17:18:34.161Z,15.20
2022-12-16T17:21:21.806Z,13.95
2022-12-16T17:24:08.188Z,14.43
2022-12-16T17:26:59.315Z,11.50
2022-12-16T17:29:47.267Z,10.15
2022-12-16T17:32:33.341Z,12.28
2022-12-16T17:35:23.448Z,11.70
2022-12-16T17:38:09.749Z,12.28
2022-12-16T17:40:55.370Z,18.23
2022-12-16T17:46:30.160Z,18.87
2022-12-16T17:49:17.016Z,14.95
2022-12-16T17:52:04.503Z,12.70
2022-12-16T17:54:54.323Z,11.48
2022-12-16T17:57:40.901Z,12.98
2022-12-16T18:00:27.917Z,14.50
2022-12-16T18:03:14.690Z,14.93
2022-12-16T18:06:01.261Z,13.45
2022-12-16T18:08:52.419Z,12.03
2022-12-16T18:11:39.058Z,11.70
2022-12-16T18:14:25.807Z,10.60
2022-12-16T18:17:11.561Z,11.10
2022-12-16T18:19:57.904Z,13.55
2022-12-16T18:22:43.860Z,11.80
2022-12-16T18:25:29.845Z,13.58
2022-12-16T18:28:15.928Z,14.73
2022-12-16T18:31:01.958Z,19.62
2022-12-16T18:33:48.888Z,19.87
2022-12-16T18:36:36.128Z,21.70
2022-12-16T18:39:26.371Z,26.15
2022-12-16T18:42:12.647Z,26.82
2022-12-16T18:45:01.458Z,27.87
2022-12-16T18:47:48.449Z,31.52
2022-12-16T18:50:37.983Z,33.40
2022-12-16T18:53:22.591Z,34.58
2022-12-16T18:56:18.946Z,34.13
2022-12-16T18:59:04.494Z,43.42
2022-12-16T19:01:50.720Z,25.20
2022-12-16T19:04:36.584Z,25.50
2022-12-16T19:07:22.723Z,31.30
2022-12-16T19:10:09.401Z,23.60
2022-12-16T19:12:56.068Z,25.20
2022-12-16T19:15:42.158Z,24.50
2022-12-16T19:18:33.427Z,44.23
2022-12-16T19:21:20.084Z,48.15
2022-12-16T19:24:07.211Z,29.87
2022-12-16T19:26:53.351Z,14.60
2022-12-16T19:29:42.144Z,15.40
2022-12-16T19:32:28.781Z,15.38
2022-12-16T19:35:14.531Z,19.95
2022-12-16T19:38:03.022Z,23.85
2022-12-16T19:40:50.715Z,27.50
2022-12-16T19:43:36.932Z,30.62
2022-12-16T19:46:23.351Z,24.70
2022-12-16T19:49:09.844Z,22.27
2022-12-16T19:51:56.250Z,22.42
2022-12-16T19:54:42.003Z,22.20
2022-12-16T19:57:32.917Z,25.40
2022-12-16T20:00:20.012Z,26.07
2022-12-16T20:03:06.502Z,22.93
2022-12-16T20:05:52.993Z,36.45
2022-12-16T20:08:41.494Z,24.25
2022-12-16T20:11:27.967Z,33.02
2022-12-16T20:14:14.490Z,38.28
2022-12-16T20:17:02.346Z,32.65
2022-12-16T20:19:51.505Z,31.40
2022-12-16T20:22:57.474Z,27.45
2022-12-16T20:25:43.821Z,26.20
2022-12-16T20:28:33.181Z,27.70
2022-12-16T20:31:22.835Z,24.50
2022-12-16T20:34:15.379Z,30.32
2022-12-16T20:37:01.781Z,30.72
2022-12-16T20:42:41.287Z,19.70
2022-12-16T20:45:29.130Z,28.25
2022-12-16T20:48:15.820Z,27.00
2022-12-16T20:51:04.040Z,29.15
2022-12-16T20:53:50.356Z,27.60
2022-12-16T20:56:41.765Z,29.92
2022-12-16T20:59:28.423Z,23.18
2022-12-16T21:02:23.201Z,21.17
2022-12-16T21:05:03.856Z,68.45
2022-12-16T21:07:53.047Z,22.82
2022-12-16T21:10:40.619Z,22.05
2022-12-16T21:13:31.359Z,17.75
2022-12-16T21:16:24.274Z,21.60
2022-12-16T21:19:14.420Z,15.28
2022-12-16T21:22:03.311Z,14.38
2022-12-16T21:24:36.430Z,15.28
2022-12-16T21:27:24.387Z,16.73
2022-12-16T21:30:10.850Z,16.30
2022-12-16T21:32:57.289Z,13.55
2022-12-16T21:35:52.670Z,32.53
2022-12-16T21:38:43.467Z,19.77
2022-12-16T21:41:32.739Z,13.08
2022-12-16T21:47:29.426Z,14.00
2022-12-16T21:50:20.899Z,19.07
2022-12-16T21:53:08.222Z,24.15
2022-12-16T21:56:01.885Z,17.55
2022-12-16T21:58:48.954Z,15.23
2022-12-16T22:01:35.614Z,16.42
2022-12-16T22:04:26.019Z,11.73
2022-12-16T22:07:21.699Z,9.85
2022-12-16T22:10:09.893Z,9.68
2022-12-16T22:12:56.940Z,10.38
2022-12-16T22:15:43.840Z,9.85
2022-12-16T22:22:09.630Z,8.98
2022-12-16T22:25:19.100Z,7.80
2022-12-16T22:28:10.643Z,6.08
2022-12-16T22:31:01.796Z,5.70
2022-12-16T22:37:24.240Z,9.13
2022-12-16T22:40:14.070Z,17.23
2022-12-16T22:43:14.289Z,17.92
2022-12-16T22:46:04.013Z,8.38
2022-12-16T22:48:51.935Z,6.95
2022-12-16T22:51:40.271Z,9.63
2022-12-16T22:54:30.153Z,6.70
2022-12-16T22:57:16.209Z,8.13
2022-12-16T23:00:02.523Z,8.95
2022-12-16T23:02:48.134Z,6.90
2022-12-16T23:05:38.723Z,7.20
2022-12-16T23:08:25.727Z,12.23
2022-12-16T23:11:14.820Z,6.58
2022-12-16T23:14:01.619Z,8.85
2022-12-16T23:16:47.619Z,7.37
2022-12-16T23:19:33.512Z,6.08
2022-12-16T23:22:22.123Z,8.28
2022-12-16T23:25:08.667Z,10.32
2022-12-16T23:27:56.350Z,9.10
2022-12-16T23:30:43.629Z,7.87
2022-12-16T23:33:29.693Z,7.22
2022-12-16T23:36:15.744Z,8.58
2022-12-16T23:39:02.142Z,6.50
2022-12-16T23:41:48.414Z,5.95
2022-12-16T23:44:34.847Z,7.30
2022-12-16T23:47:21.286Z,7.10
2022-12-16T23:50:11.140Z,15.48
2022-12-16T23:52:57.589Z,10.45
2022-12-16T23:55:50.329Z,7.28
2022-12-16T23:58:37.700Z,7.08
